Home > Products > Valid Products > TAF

000
FTUS43 KGRB 301508 AAA
TAFGRB
TAF AMD
KGRB 301508Z 3015/3112 21003KT 5SM BR FEW005
     FM301600 21005KT 6SM BR SCT006
      TEMPO 3016/3018 P6SM NSW BKN006
     FM301800 21007KT P6SM BKN015
     FM302100 21007KT P6SM SCT020
     FM310100 19003KT P6SM SKC
     FM310800 21004KT 6SM BR BKN005=



000
FTUS43 KGRB 301508 AAA
TAFGRB
TAF AMD
KGRB 301508Z 3015/3112 21003KT 5SM BR FEW005
     FM301600 21005KT 6SM BR SCT006
      TEMPO 3016/3018 P6SM NSW BKN006
     FM301800 21007KT P6SM BKN015
     FM302100 21007KT P6SM SCT020
     FM310100 19003KT P6SM SKC
     FM310800 21004KT 6SM BR BKN005=



000
FTUS43 KGRB 301508 AAA
TAFGRB
TAF AMD
KGRB 301508Z 3015/3112 21003KT 5SM BR FEW005
     FM301600 21005KT 6SM BR SCT006
      TEMPO 3016/3018 P6SM NSW BKN006
     FM301800 21007KT P6SM BKN015
     FM302100 21007KT P6SM SCT020
     FM310100 19003KT P6SM SKC
     FM310800 21004KT 6SM BR BKN005=



000
FTUS43 KGRB 301136
TAFGRB
TAF
KGRB 301136Z 3012/3112 00000KT 1/2SM FG OVC002
      TEMPO 3012/3013 1/4SM FG
     FM301400 22003KT 2SM BR BKN006
     FM301600 21005KT 5SM BR BKN012
     FM301800 21007KT P6SM FEW020
     FM310100 19003KT P6SM SKC
     FM310800 21004KT 6SM BR BKN005=



000
FTUS43 KGRB 301136
TAFGRB
TAF
KGRB 301136Z 3012/3112 00000KT 1/2SM FG OVC002
      TEMPO 3012/3013 1/4SM FG
     FM301400 22003KT 2SM BR BKN006
     FM301600 21005KT 5SM BR BKN012
     FM301800 21007KT P6SM FEW020
     FM310100 19003KT P6SM SKC
     FM310800 21004KT 6SM BR BKN005=



000
FTUS43 KGRB 300714 AAB
TAFGRB
TAF AMD
KGRB 300714Z 3007/3106 00000KT 1/2SM FG OVC002
      TEMPO 3009/3013 1/4SM FG
     FM301500 22003KT 5SM BR BKN012
     FM301600 21005KT P6SM FEW020
     FM301800 21006KT P6SM SKC=



000
FTUS43 KGRB 300714 AAB
TAFGRB
TAF AMD
KGRB 300714Z 3007/3106 00000KT 1/2SM FG OVC002
      TEMPO 3009/3013 1/4SM FG
     FM301500 22003KT 5SM BR BKN012
     FM301600 21005KT P6SM FEW020
     FM301800 21006KT P6SM SKC=



000
FTUS43 KGRB 300714 AAB
TAFGRB
TAF AMD
KGRB 300714Z 3007/3106 00000KT 1/2SM FG OVC002
      TEMPO 3009/3013 1/4SM FG
     FM301500 22003KT 5SM BR BKN012
     FM301600 21005KT P6SM FEW020
     FM301800 21006KT P6SM SKC=



000
FTUS43 KGRB 300714 AAB
TAFGRB
TAF AMD
KGRB 300714Z 3007/3106 00000KT 1/2SM FG OVC002
      TEMPO 3009/3013 1/4SM FG
     FM301500 22003KT 5SM BR BKN012
     FM301600 21005KT P6SM FEW020
     FM301800 21006KT P6SM SKC=



000
FTUS43 KGRB 300535
TAFGRB
TAF
KGRB 300535Z 3006/3106 17004KT 1/2SM FG OVC002
      TEMPO 3009/3013 1/4SM FG
     FM301500 22003KT 5SM BR BKN012
     FM301600 21005KT P6SM FEW020
     FM301800 21006KT P6SM SKC=



000
FTUS43 KGRB 300535
TAFGRB
TAF
KGRB 300535Z 3006/3106 17004KT 1/2SM FG OVC002
      TEMPO 3009/3013 1/4SM FG
     FM301500 22003KT 5SM BR BKN012
     FM301600 21005KT P6SM FEW020
     FM301800 21006KT P6SM SKC=



000
FTUS43 KGRB 300535
TAFGRB
TAF
KGRB 300535Z 3006/3106 17004KT 1/2SM FG OVC002
      TEMPO 3009/3013 1/4SM FG
     FM301500 22003KT 5SM BR BKN012
     FM301600 21005KT P6SM FEW020
     FM301800 21006KT P6SM SKC=



000
FTUS43 KGRB 300518 AAB
TAFGRB
TAF AMD
KGRB 300518Z 3005/3024 00000KT 1SM BR SCT002
      TEMPO 3006/3010 1/4SM FG VV002
     FM301500 22003KT 5SM BR BKN012
     FM301600 21005KT P6SM FEW020
     FM301800 21006KT P6SM SKC=



000
FTUS43 KGRB 300518 AAB
TAFGRB
TAF AMD
KGRB 300518Z 3005/3024 00000KT 1SM BR SCT002
      TEMPO 3006/3010 1/4SM FG VV002
     FM301500 22003KT 5SM BR BKN012
     FM301600 21005KT P6SM FEW020
     FM301800 21006KT P6SM SKC=



000
FTUS43 KGRB 300518 AAB
TAFGRB
TAF AMD
KGRB 300518Z 3005/3024 00000KT 1SM BR SCT002
      TEMPO 3006/3010 1/4SM FG VV002
     FM301500 22003KT 5SM BR BKN012
     FM301600 21005KT P6SM FEW020
     FM301800 21006KT P6SM SKC=



000
FTUS43 KGRB 292323
TAFGRB
TAF
KGRB 292323Z 3000/3024 VRB03KT P6SM SCT020 BKN035
      TEMPO 3000/3004 BKN025
     FM300400 VRB03KT 6SM BR SCT020
     FM300600 00000KT 4SM BR SCT002 SCT020
     FM300900 00000KT 1SM BR SCT002
      TEMPO 3009/3013 1/4SM FG VV002
     FM301500 22003KT 5SM BR BKN012
     FM301600 21005KT P6SM FEW020
     FM301800 21006KT P6SM SKC=



000
FTUS43 KGRB 292323
TAFGRB
TAF
KGRB 292323Z 3000/3024 VRB03KT P6SM SCT020 BKN035
      TEMPO 3000/3004 BKN025
     FM300400 VRB03KT 6SM BR SCT020
     FM300600 00000KT 4SM BR SCT002 SCT020
     FM300900 00000KT 1SM BR SCT002
      TEMPO 3009/3013 1/4SM FG VV002
     FM301500 22003KT 5SM BR BKN012
     FM301600 21005KT P6SM FEW020
     FM301800 21006KT P6SM SKC=



000
FTUS43 KGRB 292323
TAFGRB
TAF
KGRB 292323Z 3000/3024 VRB03KT P6SM SCT020 BKN035
      TEMPO 3000/3004 BKN025
     FM300400 VRB03KT 6SM BR SCT020
     FM300600 00000KT 4SM BR SCT002 SCT020
     FM300900 00000KT 1SM BR SCT002
      TEMPO 3009/3013 1/4SM FG VV002
     FM301500 22003KT 5SM BR BKN012
     FM301600 21005KT P6SM FEW020
     FM301800 21006KT P6SM SKC=



000
FTUS43 KGRB 292323
TAFGRB
TAF
KGRB 292323Z 3000/3024 VRB03KT P6SM SCT020 BKN035
      TEMPO 3000/3004 BKN025
     FM300400 VRB03KT 6SM BR SCT020
     FM300600 00000KT 4SM BR SCT002 SCT020
     FM300900 00000KT 1SM BR SCT002
      TEMPO 3009/3013 1/4SM FG VV002
     FM301500 22003KT 5SM BR BKN012
     FM301600 21005KT P6SM FEW020
     FM301800 21006KT P6SM SKC=



000
FTUS43 KGRB 291900 AAA
TAFGRB
TAF AMD
KGRB 291900Z 2919/3018 VRB03KT P6SM OVC022
     FM292100 14005KT P6SM BKN025
     FM300100 VRB03KT P6SM BKN030
     FM300400 00000KT 5SM BR SCT002 SCT020
     FM300900 00000KT 1SM BR SCT002
      TEMPO 3009/3013 1/4SM FG VV002
     FM301500 22005KT 5SM BR BKN012=



000
FTUS43 KGRB 291900 AAA
TAFGRB
TAF AMD
KGRB 291900Z 2919/3018 VRB03KT P6SM OVC022
     FM292100 14005KT P6SM BKN025
     FM300100 VRB03KT P6SM BKN030
     FM300400 00000KT 5SM BR SCT002 SCT020
     FM300900 00000KT 1SM BR SCT002
      TEMPO 3009/3013 1/4SM FG VV002
     FM301500 22005KT 5SM BR BKN012=



000
FTUS43 KGRB 291720
TAFGRB
TAF
KGRB 291720Z 2918/3018 10004KT 6SM HZ OVC012
     FM292100 14005KT P6SM BKN015
     FM300100 VRB03KT P6SM BKN020
     FM300400 00000KT 5SM BR SCT002 SCT020
     FM300900 00000KT 1SM BR SCT002
      TEMPO 3009/3013 1/4SM FG VV002
     FM301500 22005KT 5SM BR BKN012=



000
FTUS43 KGRB 291720
TAFGRB
TAF
KGRB 291720Z 2918/3018 10004KT 6SM HZ OVC012
     FM292100 14005KT P6SM BKN015
     FM300100 VRB03KT P6SM BKN020
     FM300400 00000KT 5SM BR SCT002 SCT020
     FM300900 00000KT 1SM BR SCT002
      TEMPO 3009/3013 1/4SM FG VV002
     FM301500 22005KT 5SM BR BKN012=



000
FTUS43 KGRB 291459 AAB
TAFGRB
TAF AMD
KGRB 291459Z 2915/3012 10005KT 6SM BR OVC007
     FM291700 12006KT P6SM SCT007 OVC012
     FM292100 15006KT P6SM FEW025 BKN050
     FM292300 VRB03KT P6SM FEW050
     FM300300 VRB03KT 3SM BR SKC
     FM300900 00000KT 1/2SM FG BKN002=



000
FTUS43 KGRB 291459 AAB
TAFGRB
TAF AMD
KGRB 291459Z 2915/3012 10005KT 6SM BR OVC007
     FM291700 12006KT P6SM SCT007 OVC012
     FM292100 15006KT P6SM FEW025 BKN050
     FM292300 VRB03KT P6SM FEW050
     FM300300 VRB03KT 3SM BR SKC
     FM300900 00000KT 1/2SM FG BKN002=



000
FTUS43 KGRB 291459 AAB
TAFGRB
TAF AMD
KGRB 291459Z 2915/3012 10005KT 6SM BR OVC007
     FM291700 12006KT P6SM SCT007 OVC012
     FM292100 15006KT P6SM FEW025 BKN050
     FM292300 VRB03KT P6SM FEW050
     FM300300 VRB03KT 3SM BR SKC
     FM300900 00000KT 1/2SM FG BKN002=



000
FTUS43 KGRB 291459 AAB
TAFGRB
TAF AMD
KGRB 291459Z 2915/3012 10005KT 6SM BR OVC007
     FM291700 12006KT P6SM SCT007 OVC012
     FM292100 15006KT P6SM FEW025 BKN050
     FM292300 VRB03KT P6SM FEW050
     FM300300 VRB03KT 3SM BR SKC
     FM300900 00000KT 1/2SM FG BKN002=



000
FTUS43 KGRB 291250 AAA
TAFGRB
TAF AMD
KGRB 291250Z 2913/3012 09004KT 3SM BR SCT004 OVC030
      TEMPO 2913/2915 BKN004
     FM291500 13005KT 5SM BR BKN012 OVC025
     FM292100 15006KT P6SM FEW025 BKN050
     FM292300 VRB03KT P6SM FEW050
     FM300300 VRB03KT 3SM BR SKC
     FM300900 00000KT 1/2SM FG BKN002=



000
FTUS43 KGRB 291250 AAA
TAFGRB
TAF AMD
KGRB 291250Z 2913/3012 09004KT 3SM BR SCT004 OVC030
      TEMPO 2913/2915 BKN004
     FM291500 13005KT 5SM BR BKN012 OVC025
     FM292100 15006KT P6SM FEW025 BKN050
     FM292300 VRB03KT P6SM FEW050
     FM300300 VRB03KT 3SM BR SKC
     FM300900 00000KT 1/2SM FG BKN002=



000
FTUS43 KGRB 291138
TAFGRB
TAF
KGRB 291138Z 2912/3012 VRB03KT 3SM BR SCT004 OVC009
     FM291500 13005KT 5SM BR BKN012 OVC025
     FM292100 15006KT P6SM FEW025 BKN050
     FM292300 VRB03KT P6SM FEW050
     FM300300 VRB03KT 3SM BR SKC
     FM300900 00000KT 1/2SM FG BKN002=



000
FTUS43 KGRB 291138
TAFGRB
TAF
KGRB 291138Z 2912/3012 VRB03KT 3SM BR SCT004 OVC009
     FM291500 13005KT 5SM BR BKN012 OVC025
     FM292100 15006KT P6SM FEW025 BKN050
     FM292300 VRB03KT P6SM FEW050
     FM300300 VRB03KT 3SM BR SKC
     FM300900 00000KT 1/2SM FG BKN002=



000
FTUS43 KGRB 290750 AAA
TAFGRB
TAF AMD
KGRB 290750Z 2908/3006 18005KT 6SM -RA SCT025 OVC050
      TEMPO 2908/2910 4SM -RA BR BKN025
     FM291000 VRB03KT 4SM -RA BR SCT018 OVC025
     FM291500 15005KT 5SM BR VCSH BKN012 OVC025
     FM292100 17005KT P6SM FEW025 BKN050
     FM300000 VRB03KT P6SM FEW050=



000
FTUS43 KGRB 290750 AAA
TAFGRB
TAF AMD
KGRB 290750Z 2908/3006 18005KT 6SM -RA SCT025 OVC050
      TEMPO 2908/2910 4SM -RA BR BKN025
     FM291000 VRB03KT 4SM -RA BR SCT018 OVC025
     FM291500 15005KT 5SM BR VCSH BKN012 OVC025
     FM292100 17005KT P6SM FEW025 BKN050
     FM300000 VRB03KT P6SM FEW050=



000
FTUS43 KGRB 290750 AAA
TAFGRB
TAF AMD
KGRB 290750Z 2908/3006 18005KT 6SM -RA SCT025 OVC050
      TEMPO 2908/2910 4SM -RA BR BKN025
     FM291000 VRB03KT 4SM -RA BR SCT018 OVC025
     FM291500 15005KT 5SM BR VCSH BKN012 OVC025
     FM292100 17005KT P6SM FEW025 BKN050
     FM300000 VRB03KT P6SM FEW050=



000
FTUS43 KGRB 290543
TAFGRB
TAF
KGRB 290543Z 2906/3006 18005KT 6SM -RA SCT015 OVC040
      TEMPO 2906/2910 4SM -RA BR BKN015
     FM291000 VRB03KT 4SM -RA BR BKN009 OVC018
     FM291500 15005KT 5SM BR VCSH BKN010 OVC020
     FM292100 17005KT P6SM FEW025 BKN050
     FM300000 VRB03KT P6SM FEW050=



000
FTUS43 KGRB 290543
TAFGRB
TAF
KGRB 290543Z 2906/3006 18005KT 6SM -RA SCT015 OVC040
      TEMPO 2906/2910 4SM -RA BR BKN015
     FM291000 VRB03KT 4SM -RA BR BKN009 OVC018
     FM291500 15005KT 5SM BR VCSH BKN010 OVC020
     FM292100 17005KT P6SM FEW025 BKN050
     FM300000 VRB03KT P6SM FEW050=



000
FTUS43 KGRB 290543
TAFGRB
TAF
KGRB 290543Z 2906/3006 18005KT 6SM -RA SCT015 OVC040
      TEMPO 2906/2910 4SM -RA BR BKN015
     FM291000 VRB03KT 4SM -RA BR BKN009 OVC018
     FM291500 15005KT 5SM BR VCSH BKN010 OVC020
     FM292100 17005KT P6SM FEW025 BKN050
     FM300000 VRB03KT P6SM FEW050=



000
FTUS43 KGRB 282340
TAFGRB
TAF
KGRB 282340Z 2900/2924 22006KT 6SM -RA BR SCT040 OVC070
      TEMPO 2900/2902 4SM -RA BR SCT020 OVC040
     FM290200 18005KT 4SM -RA BR BKN020 OVC040
     FM290700 VRB03KT 3SM -RA BR BKN009 OVC018
     FM291500 12005KT 5SM BR SCT009 OVC020 PROB30 2915/2918 2SM
      -SHRA BR BKN009
     FM292100 15005KT P6SM FEW025 BKN050=



000
FTUS43 KGRB 282340
TAFGRB
TAF
KGRB 282340Z 2900/2924 22006KT 6SM -RA BR SCT040 OVC070
      TEMPO 2900/2902 4SM -RA BR SCT020 OVC040
     FM290200 18005KT 4SM -RA BR BKN020 OVC040
     FM290700 VRB03KT 3SM -RA BR BKN009 OVC018
     FM291500 12005KT 5SM BR SCT009 OVC020 PROB30 2915/2918 2SM
      -SHRA BR BKN009
     FM292100 15005KT P6SM FEW025 BKN050=



000
FTUS43 KGRB 281727
TAFGRB
TAF
KGRB 281727Z 2818/2918 21009KT P6SM SCT050 OVC100
     FM282100 22010KT P6SM SCT040 OVC080
      TEMPO 2822/2902 5SM -SHRA BR SCT020 OVC040
     FM290200 18005KT 5SM -SHRA BR BKN020 OVC040
     FM290700 VRB03KT 3SM -SHRA BR BKN009 OVC018
     FM291500 12005KT 5SM BR SCT009 OVC020 PROB30 2915/2918 2SM
      -SHRA BR BKN009=



000
FTUS43 KGRB 281727
TAFGRB
TAF
KGRB 281727Z 2818/2918 21009KT P6SM SCT050 OVC100
     FM282100 22010KT P6SM SCT040 OVC080
      TEMPO 2822/2902 5SM -SHRA BR SCT020 OVC040
     FM290200 18005KT 5SM -SHRA BR BKN020 OVC040
     FM290700 VRB03KT 3SM -SHRA BR BKN009 OVC018
     FM291500 12005KT 5SM BR SCT009 OVC020 PROB30 2915/2918 2SM
      -SHRA BR BKN009=



000
FTUS43 KGRB 281727
TAFGRB
TAF
KGRB 281727Z 2818/2918 21009KT P6SM SCT050 OVC100
     FM282100 22010KT P6SM SCT040 OVC080
      TEMPO 2822/2902 5SM -SHRA BR SCT020 OVC040
     FM290200 18005KT 5SM -SHRA BR BKN020 OVC040
     FM290700 VRB03KT 3SM -SHRA BR BKN009 OVC018
     FM291500 12005KT 5SM BR SCT009 OVC020 PROB30 2915/2918 2SM
      -SHRA BR BKN009=



000
FTUS43 KGRB 281158
TAFGRB
TAF
KGRB 281158Z 2812/2912 20005KT P6SM BKN150
     FM281500 20003KT P6SM SCT050 BKN100
     FM281800 21007KT P6SM SCT035 OVC080 PROB30 2821/2902 -RA OVC035
     FM290200 19007KT 6SM RA BKN022 OVC035
     FM290600 VRB03KT 2SM RA BR BKN012 OVC020=



000
FTUS43 KGRB 281158
TAFGRB
TAF
KGRB 281158Z 2812/2912 20005KT P6SM BKN150
     FM281500 20003KT P6SM SCT050 BKN100
     FM281800 21007KT P6SM SCT035 OVC080 PROB30 2821/2902 -RA OVC035
     FM290200 19007KT 6SM RA BKN022 OVC035
     FM290600 VRB03KT 2SM RA BR BKN012 OVC020=



000
FTUS43 KGRB 281158
TAFGRB
TAF
KGRB 281158Z 2812/2912 20005KT P6SM BKN150
     FM281500 20003KT P6SM SCT050 BKN100
     FM281800 21007KT P6SM SCT035 OVC080 PROB30 2821/2902 -RA OVC035
     FM290200 19007KT 6SM RA BKN022 OVC035
     FM290600 VRB03KT 2SM RA BR BKN012 OVC020=



000
FTUS43 KGRB 281158
TAFGRB
TAF
KGRB 281158Z 2812/2912 20005KT P6SM BKN150
     FM281500 20003KT P6SM SCT050 BKN100
     FM281800 21007KT P6SM SCT035 OVC080 PROB30 2821/2902 -RA OVC035
     FM290200 19007KT 6SM RA BKN022 OVC035
     FM290600 VRB03KT 2SM RA BR BKN012 OVC020=



000
FTUS43 KGRB 280520
TAFGRB
TAF
KGRB 280520Z 2806/2906 18005KT P6SM SCT150
      TEMPO 2808/2812 5SM BR
     FM281200 19003KT P6SM SCT050 BKN100
     FM281500 21007KT P6SM SCT035 OVC080 PROB30 2816/2822 -RA OVC035
     FM282200 15007KT 6SM RA BKN022 OVC035
     FM290200 VRB03KT 2SM RA BR BKN012 OVC020=



000
FTUS43 KGRB 280520
TAFGRB
TAF
KGRB 280520Z 2806/2906 18005KT P6SM SCT150
      TEMPO 2808/2812 5SM BR
     FM281200 19003KT P6SM SCT050 BKN100
     FM281500 21007KT P6SM SCT035 OVC080 PROB30 2816/2822 -RA OVC035
     FM282200 15007KT 6SM RA BKN022 OVC035
     FM290200 VRB03KT 2SM RA BR BKN012 OVC020=



000
FTUS43 KGRB 280520
TAFGRB
TAF
KGRB 280520Z 2806/2906 18005KT P6SM SCT150
      TEMPO 2808/2812 5SM BR
     FM281200 19003KT P6SM SCT050 BKN100
     FM281500 21007KT P6SM SCT035 OVC080 PROB30 2816/2822 -RA OVC035
     FM282200 15007KT 6SM RA BKN022 OVC035
     FM290200 VRB03KT 2SM RA BR BKN012 OVC020=



000
FTUS43 KGRB 280520
TAFGRB
TAF
KGRB 280520Z 2806/2906 18005KT P6SM SCT150
      TEMPO 2808/2812 5SM BR
     FM281200 19003KT P6SM SCT050 BKN100
     FM281500 21007KT P6SM SCT035 OVC080 PROB30 2816/2822 -RA OVC035
     FM282200 15007KT 6SM RA BKN022 OVC035
     FM290200 VRB03KT 2SM RA BR BKN012 OVC020=



000
FTUS43 KGRB 272327
TAFGRB
TAF
KGRB 272327Z 2800/2824 18005KT P6SM BKN250
      TEMPO 2808/2812 5SM BR
     FM281200 19003KT P6SM SCT050 BKN100
     FM281500 21007KT P6SM SCT035 OVC080 PROB30 2815/2820 -RA OVC035
     FM282000 15007KT 6SM RA BKN022 OVC035=



000
FTUS43 KGRB 272327
TAFGRB
TAF
KGRB 272327Z 2800/2824 18005KT P6SM BKN250
      TEMPO 2808/2812 5SM BR
     FM281200 19003KT P6SM SCT050 BKN100
     FM281500 21007KT P6SM SCT035 OVC080 PROB30 2815/2820 -RA OVC035
     FM282000 15007KT 6SM RA BKN022 OVC035=



000
FTUS43 KGRB 272327
TAFGRB
TAF
KGRB 272327Z 2800/2824 18005KT P6SM BKN250
      TEMPO 2808/2812 5SM BR
     FM281200 19003KT P6SM SCT050 BKN100
     FM281500 21007KT P6SM SCT035 OVC080 PROB30 2815/2820 -RA OVC035
     FM282000 15007KT 6SM RA BKN022 OVC035=



000
FTUS43 KGRB 272327
TAFGRB
TAF
KGRB 272327Z 2800/2824 18005KT P6SM BKN250
      TEMPO 2808/2812 5SM BR
     FM281200 19003KT P6SM SCT050 BKN100
     FM281500 21007KT P6SM SCT035 OVC080 PROB30 2815/2820 -RA OVC035
     FM282000 15007KT 6SM RA BKN022 OVC035=



000
FTUS43 KGRB 271730
TAFGRB
TAF
KGRB 271730Z 2718/2818 22005KT P6SM SKC
     FM280000 18004KT P6SM BKN250
      TEMPO 2808/2812 5SM BR
     FM281200 VRB03KT P6SM SCT050 BKN100
     FM281600 22006KT P6SM OVC045 PROB30 2816/2818 4SM -SHRA BR
      OVC035=



000
FTUS43 KGRB 271730
TAFGRB
TAF
KGRB 271730Z 2718/2818 22005KT P6SM SKC
     FM280000 18004KT P6SM BKN250
      TEMPO 2808/2812 5SM BR
     FM281200 VRB03KT P6SM SCT050 BKN100
     FM281600 22006KT P6SM OVC045 PROB30 2816/2818 4SM -SHRA BR
      OVC035=



000
FTUS43 KGRB 271730
TAFGRB
TAF
KGRB 271730Z 2718/2818 22005KT P6SM SKC
     FM280000 18004KT P6SM BKN250
      TEMPO 2808/2812 5SM BR
     FM281200 VRB03KT P6SM SCT050 BKN100
     FM281600 22006KT P6SM OVC045 PROB30 2816/2818 4SM -SHRA BR
      OVC035=



000
FTUS43 KGRB 271730
TAFGRB
TAF
KGRB 271730Z 2718/2818 22005KT P6SM SKC
     FM280000 18004KT P6SM BKN250
      TEMPO 2808/2812 5SM BR
     FM281200 VRB03KT P6SM SCT050 BKN100
     FM281600 22006KT P6SM OVC045 PROB30 2816/2818 4SM -SHRA BR
      OVC035=



    US Dept of Commerce
    National Oceanic and Atmospheric Administration
    National Weather Service
    1325 East West Highway
    Silver Spring, MD 20910
    Page Author: NWS Internet Services Team
Disclaimer
Information Quality
Credits
Glossary
Privacy Policy
Freedom of Information Act (FOIA)
About Us
Career Opportunities